createdAt,value
2019-02-18T00:04:22.246Z,8.01
2019-02-18T00:10:28.083Z,7.89
2019-02-18T00:16:33.841Z,7.79
2019-02-18T00:22:39.558Z,7.79
2019-02-18T00:28:45.333Z,7.73
2019-02-18T00:34:51.328Z,7.67
2019-02-18T00:40:57.326Z,7.59
2019-02-18T00:47:03.196Z,7.56
2019-02-18T00:53:09.059Z,7.46
2019-02-18T00:59:14.861Z,7.44
2019-02-18T01:05:21.063Z,7.36
2019-02-18T01:11:27.001Z,7.29
2019-02-18T01:17:33.054Z,7.28
2019-02-18T01:23:38.760Z,7.19
2019-02-18T01:29:44.478Z,7.09
2019-02-18T01:35:50.280Z,7.05
2019-02-18T01:41:56.283Z,6.99
2019-02-18T01:48:02.156Z,6.93
2019-02-18T01:54:07.843Z,6.87
2019-02-18T02:00:16.066Z,6.77
2019-02-18T02:06:22.162Z,6.71
2019-02-18T02:12:27.986Z,6.62
2019-02-18T02:18:33.953Z,6.52
2019-02-18T02:24:39.746Z,6.49
2019-02-18T02:30:46.432Z,6.44
2019-02-18T02:36:52.747Z,6.43
2019-02-18T02:42:59.520Z,6.36
2019-02-18T02:49:05.431Z,6.28
2019-02-18T02:55:11.270Z,6.19
2019-02-18T03:01:16.989Z,6.19
2019-02-18T03:07:23.031Z,6.17
2019-02-18T03:13:28.872Z,6.15
2019-02-18T03:19:34.736Z,6.12
2019-02-18T03:25:40.983Z,6.04
2019-02-18T03:31:46.756Z,6.01
2019-02-18T03:37:52.495Z,5.95
2019-02-18T03:43:58.354Z,5.91
2019-02-18T03:50:04.093Z,5.86
2019-02-18T03:56:09.803Z,5.84
2019-02-18T04:02:15.493Z,5.83
2019-02-18T04:08:21.202Z,5.80
2019-02-18T04:14:27.023Z,5.77
2019-02-18T04:20:32.794Z,5.71
2019-02-18T04:26:41.826Z,5.65
2019-02-18T04:32:47.776Z,5.59
2019-02-18T04:38:54.407Z,5.55
2019-02-18T04:45:00.747Z,5.55
2019-02-18T04:51:06.944Z,5.56
2019-02-18T04:57:12.780Z,5.56
2019-02-18T05:03:18.486Z,5.51
2019-02-18T05:09:24.551Z,5.46
2019-02-18T05:15:30.531Z,5.44
2019-02-18T05:21:36.415Z,5.39
2019-02-18T05:27:42.240Z,5.37
2019-02-18T05:33:48.120Z,5.28
2019-02-18T05:39:55.453Z,5.29
2019-02-18T05:46:01.951Z,5.32
2019-02-18T05:52:07.938Z,5.32
2019-02-18T05:58:14.229Z,5.35
2019-02-18T06:04:20.140Z,5.37
2019-02-18T06:10:26.091Z,5.36
2019-02-18T06:16:31.996Z,5.39
2019-02-18T06:22:38.827Z,5.44
2019-02-18T06:28:44.716Z,5.54
2019-02-18T06:34:50.569Z,5.55
2019-02-18T06:40:58.221Z,5.52
2019-02-18T06:47:08.652Z,5.52
2019-02-18T06:53:14.445Z,5.52
2019-02-18T06:59:27.962Z,5.57
2019-02-18T07:05:44.519Z,5.58
2019-02-18T07:11:55.760Z,5.63
2019-02-18T07:18:01.725Z,5.74
2019-02-18T07:24:07.677Z,5.92
2019-02-18T07:30:16.496Z,6.14
2019-02-18T07:36:22.669Z,6.35
2019-02-18T07:42:29.950Z,6.54
2019-02-18T07:48:36.791Z,6.68
2019-02-18T07:54:42.839Z,6.85
2019-02-18T08:00:48.682Z,7.05
2019-02-18T08:06:54.445Z,7.21
2019-02-18T08:13:00.280Z,7.33
2019-02-18T08:19:06.419Z,7.51
2019-02-18T08:25:12.202Z,7.72
2019-02-18T08:31:17.975Z,7.86
2019-02-18T08:37:23.800Z,8.00
2019-02-18T08:43:30.052Z,8.16
2019-02-18T08:49:35.815Z,8.29
2019-02-18T08:55:41.703Z,8.45
2019-02-18T09:01:47.380Z,8.64
2019-02-18T09:07:53.275Z,8.82
2019-02-18T09:13:59.168Z,9.00
2019-02-18T09:20:04.967Z,9.13
2019-02-18T09:26:12.174Z,9.37
2019-02-18T09:32:18.032Z,9.54
2019-02-18T09:38:25.215Z,9.69
2019-02-18T09:44:31.514Z,9.87
2019-02-18T09:50:37.542Z,10.05
2019-02-18T09:56:43.406Z,10.29
2019-02-18T10:02:49.400Z,10.51
2019-02-18T10:08:55.444Z,10.64
2019-02-18T10:15:01.290Z,10.78
2019-02-18T10:21:07.147Z,10.87
2019-02-18T10:27:13.123Z,11.06
2019-02-18T10:33:18.869Z,11.24
2019-02-18T10:39:24.904Z,11.43
2019-02-18T10:45:30.585Z,11.54
2019-02-18T10:51:36.427Z,11.65
2019-02-18T10:57:42.762Z,11.80
2019-02-18T11:03:48.725Z,12.04
2019-02-18T11:09:54.533Z,12.21
2019-02-18T11:16:00.257Z,12.35
2019-02-18T11:22:05.952Z,12.49
2019-02-18T11:28:12.493Z,12.63
2019-02-18T11:34:18.371Z,12.75
2019-02-18T11:40:24.149Z,12.83
2019-02-18T11:46:30.426Z,12.97
2019-02-18T11:52:36.396Z,13.16
2019-02-18T11:58:42.248Z,13.30
2019-02-18T12:04:48.329Z,13.39
2019-02-18T12:10:54.448Z,13.49
2019-02-18T12:17:00.501Z,13.66
2019-02-18T12:23:06.864Z,13.76
2019-02-18T12:29:12.735Z,13.90
2019-02-18T12:35:18.473Z,13.99
2019-02-18T12:41:25.182Z,14.09
2019-02-18T12:47:30.880Z,14.17
2019-02-18T12:53:36.771Z,14.24
2019-02-18T12:59:42.759Z,14.30
2019-02-18T13:05:49.238Z,14.42
2019-02-18T13:24:09.915Z,14.68
2019-02-18T13:30:17.456Z,14.76
2019-02-18T13:36:24.143Z,14.87
2019-02-18T13:42:30.026Z,14.91
2019-02-18T13:48:38.152Z,15.00
2019-02-18T13:54:44.630Z,15.07
2019-02-18T14:00:50.656Z,15.14
2019-02-18T14:06:56.647Z,15.24
2019-02-18T14:13:02.601Z,15.35
2019-02-18T14:19:08.524Z,15.43
2019-02-18T14:25:15.222Z,15.52
2019-02-18T14:31:21.328Z,15.61
2019-02-18T14:37:27.104Z,15.63
2019-02-18T14:43:32.978Z,15.66
2019-02-18T14:49:38.820Z,15.73
2019-02-18T14:55:44.784Z,15.74
2019-02-18T15:01:50.784Z,15.80
2019-02-18T15:07:56.810Z,15.77
2019-02-18T15:14:02.697Z,15.72
2019-02-18T15:20:09.172Z,15.66
2019-02-18T15:26:16.092Z,15.62
2019-02-18T15:32:22.677Z,15.65
2019-02-18T15:38:28.628Z,15.71
2019-02-18T15:44:35.291Z,15.80
2019-02-18T15:50:41.793Z,15.87
2019-02-18T15:56:47.617Z,15.92
2019-02-18T16:02:53.529Z,15.81
2019-02-18T16:08:59.474Z,15.54
2019-02-18T16:15:07.264Z,15.25
2019-02-18T16:21:13.393Z,15.00
2019-02-18T16:27:19.496Z,14.80
2019-02-18T16:33:25.527Z,14.56
2019-02-18T16:39:31.514Z,14.30
2019-02-18T16:45:38.137Z,14.15
2019-02-18T16:51:44.727Z,14.01
2019-02-18T16:57:50.567Z,13.95
2019-02-18T17:03:56.296Z,13.79
2019-02-18T17:10:02.234Z,13.61
2019-02-18T17:16:09.391Z,13.43
2019-02-18T17:22:15.201Z,13.22
2019-02-18T17:28:21.328Z,13.02
2019-02-18T17:34:27.048Z,12.85
2019-02-18T17:40:33.590Z,12.75
2019-02-18T17:46:39.523Z,12.64
2019-02-18T17:52:46.220Z,12.52
2019-02-18T17:58:54.430Z,12.43
2019-02-18T18:05:00.269Z,12.30
2019-02-18T18:11:06.249Z,12.21
2019-02-18T18:17:12.311Z,12.08
2019-02-18T18:23:18.230Z,11.95
2019-02-18T18:29:24.522Z,11.86
2019-02-18T18:35:30.378Z,11.75
2019-02-18T18:41:36.136Z,11.68
2019-02-18T18:47:44.459Z,11.58
2019-02-18T18:53:50.360Z,11.50
2019-02-18T18:59:56.152Z,11.46
2019-02-18T19:06:01.928Z,11.39
2019-02-18T19:12:07.694Z,11.26
2019-02-18T19:18:13.514Z,11.11
2019-02-18T19:24:19.326Z,10.99
2019-02-18T19:30:27.402Z,10.93
2019-02-18T19:36:33.334Z,10.86
2019-02-18T19:42:39.108Z,10.73
2019-02-18T19:48:44.942Z,10.61
2019-02-18T19:54:50.843Z,10.52
2019-02-18T20:00:57.001Z,10.41
2019-02-18T20:07:03.030Z,10.34
2019-02-18T20:13:08.759Z,10.30
2019-02-18T20:19:14.835Z,10.25
2019-02-18T20:25:20.600Z,10.23
2019-02-18T20:31:26.686Z,10.15
2019-02-18T20:37:33.024Z,10.09
2019-02-18T20:43:38.770Z,10.04
2019-02-18T20:49:44.944Z,9.99
2019-02-18T20:55:50.727Z,9.94
2019-02-18T21:01:56.601Z,9.90
2019-02-18T21:08:02.757Z,9.83
2019-02-18T21:14:15.895Z,9.77
2019-02-18T21:20:16.483Z,9.70
2019-02-18T21:26:23.078Z,9.61
2019-02-18T21:32:29.196Z,9.53
2019-02-18T21:38:54.026Z,9.46
2019-02-18T21:45:00.321Z,9.38
2019-02-18T21:51:06.160Z,9.31
2019-02-18T21:57:12.205Z,9.30
2019-02-18T22:03:18.729Z,9.31
2019-02-18T22:09:24.596Z,9.29
2019-02-18T22:15:30.834Z,9.27
2019-02-18T22:21:36.938Z,9.18
2019-02-18T22:27:43.284Z,9.13
2019-02-18T22:33:49.125Z,9.08
2019-02-18T22:39:55.126Z,9.04
2019-02-18T22:46:01.522Z,9.00
2019-02-18T22:52:07.400Z,8.96
2019-02-18T22:58:13.250Z,8.93
2019-02-18T23:04:19.253Z,8.92
2019-02-18T23:10:25.418Z,8.92
2019-02-18T23:16:31.545Z,8.92
2019-02-18T23:22:37.379Z,8.90
2019-02-18T23:28:43.518Z,8.88
2019-02-18T23:34:49.691Z,8.87
2019-02-18T23:40:55.539Z,8.83
2019-02-18T23:47:01.423Z,8.77
2019-02-18T23:53:07.624Z,8.76
2019-02-18T23:59:13.585Z,8.75
